Skip Navigation Links
NOAA logo - Click to go to the NOAA homepage
NOAA's National Weather Service
Alaska Aviation Weather Unit
  NWS logo - Click to go to the NWS homepage
Left Navbar Graphic     08 AKDT = 16 GMT

   
NOAA is celebrating 200 years of science, service, and stewardship. Visit the NOAA 200th celebration Web site to learn more.
USA.gov is the U.S. Government's official Web portal to all Federal, state and local government Web resources and services.
Facebook
NWS on Facebook

Important Change Regarding the AAWU Web Presence

 

Over the last several months, the AAWU has been working to navigate its webpages to a nationally supported server. Security, as well as other needs, have necessitated the change.  In the process, we have made an effort to enhance the functionality of our website, as well as some of our products. As of June 20, 2017, aawu.arh.noaa.gov will be discontinued. The new AAWU web address is weather.gov/aawu. It is now live and will run in-parallel with the old site until it is discontinued. Please send any feedback or questions regarding the new webpages to nws.ar.aawu.webauthors@noaa.gov.  Thank you for your patience during this time of transition.
AAWU Home :: Display TAF Add Bookmark
TAF PACD 231309Z 2313/2412 16022G30KT P6SM -SHRA SCT030 BKN050 OVC080
      TEMPO 2313/2315 -RA BKN030
     FM231500 18015G22KT 5SM -RA BR BKN020 OVC035
     FM231800 18025G35KT 4SM -RA FEW008 OVC015
     FM240900 24015G25KT 5SM -SHRA BKN010 OVC015=

METAR PACD 231053Z AUTO 14011KT 10SM BKN055 OVC080 06/04 A3002= METAR PACD 231153Z AUTO 17015G22KT 10SM -RA OVC055 06/04 A2999= METAR PACD 231253Z AUTO 16023G31KT 10SM -RA SCT048 OVC060 06/05 A2997= METAR PACD 231353Z AUTO 16028G35KT 10SM -RA OVC065 06/06 A2995= PACD 231427Z AUTO 15028G35KT 10SM -RA FEW004 OVC075 06/06 A2994= METAR PACD 231453Z AUTO 18015G37KT 10SM FEW022 SCT055 OVC070 07/06 A2995= METAR PACD 231553Z 16024G37KT 10SM -RA SCT025 BKN039 OVC055 06/06 A2994=
 Alaska TAF Map

NOAA's National Weather Service
Alaska Aviation Weather Unit
6930 Sand Lake Road
Anchorage, AK 99502-1845
Disclaimer
Credits
Glossary
Privacy Policy
About Us
Career Opportunities
Contact AAWU Internet Services Site last modified: April, 17th 2012